バンダルスリブガワン の空港の天気 - METARとTAF

ブルネイ国際空港 ( WBSB / BWN ) - ブルネイ バンダルスリブガワン
飛行場実況気象(Metar)
観測時間05/29 06:30 BNT (05/28 22:30 UTC)
風向・風速南南西 2m/s
視程10km以上
天気現象
少しの雲 雲底高度 430m
全天の8割程度の雲 雲底高度 8530m
気温25℃
湿度100%
気圧1009hPa
METARWBSB 282230Z 21004KT 9999 FEW014 BKN280 25/25 Q1009 NOSIG
過去の天気等 Google飛行場航空写真 Wunderground天気予報

過去48時間のMETAR

飛行場予報(TAF)
発表時間: 5/29 01:00 BNT (5/28 17:00 UTC)
予報対象時間: 29日2時 BNT ~ 30日8時 BNT
風向・風速南東 2m/s
視程10km以上
少しの雲 雲底高度 430m
29日8時 BNT ~ 29日10時 BNT に徐々に
風向・風速南西 2m/s
少しの雲 雲底高度 460m
29日12時 BNT ~ 29日14時 BNT に徐々に
風向・風速北西 4m/s
少しの雲 雲底高度 490m
少しの積乱雲 雲底高度 520m
TAF WBSB 281700Z 2818/3000 14003KT 9999 FEW014
BECMG 2900/2902 22004KT FEW015
BECMG 2904/2906 32008KT FEW016 FEW017CB